Time;durP1;ratioP1;P1;durP2;ratioP2;P2;SDS_P1;SDS_P2;PMS_P1;PMS_P2;Temp;Humidity;BMP_temperature;BMP_pressure;BME280_temperature;BME280_humidity;BME280_pressure;Samples;Min_cycle;Max_cycle;Signal;HPM_P1;HPM_P2
2020/12/05 06:03:36;;;;;;;0.00;0.00;;;2.20;85.50;;;;;;3528791;28;20082;-92
2020/12/05 06:06:04;;;;;;;0.30;0.10;;;2.30;85.60;;;;;;3515734;33;20125;-89
2020/12/05 06:08:44;;;;;;;0.30;0.10;;;2.20;85.70;;;;;;3499069;40;20079;-88
2020/12/05 06:11:11;;;;;;;0.00;0.00;;;2.20;85.60;;;;;;3549729;33;20081;-88
2020/12/05 06:21:31;;;;;;;0.00;0.00;;;2.20;85.70;;;;;;3910519;27;20177;-89
2020/12/05 06:24:07;;;;;;;0.00;0.00;;;2.30;85.70;;;;;;3492388;41;20466;-89
2020/12/05 08:05:51;;;;;;;0.00;0.00;;;3.70;83.40;;;;;;3933526;27;20103;-88
2020/12/05 08:08:27;;;;;;;0.00;0.00;;;3.70;83.40;;;;;;3497984;33;20147;-90
2020/12/05 08:11:00;;;;;;;0.00;0.00;;;3.80;83.40;;;;;;3512867;33;20133;-89
2020/12/05 08:13:49;;;;;;;0.20;0.00;;;3.80;83.40;;;;;;3503263;33;20074;-91
2020/12/05 08:20:31;;;;;;;;;;;;;;;;;;;;;
2020/12/05 08:24:19;;;;;;;0.00;0.00;;;3.90;83.40;;;;;;3500495;33;20483;-91
2020/12/05 08:26:28;;;;;;;0.13;0.00;;;4.00;83.30;;;;;;3487269;41;20121;-89
2020/12/05 08:28:55;;;;;;;0.00;0.00;;;4.00;83.30;;;;;;3488945;41;20130;-88
2020/12/05 08:31:21;;;;;;;0.20;0.00;;;4.00;83.30;;;;;;3485737;33;20160;-90
2020/12/05 08:33:48;;;;;;;0.00;0.00;;;4.10;83.30;;;;;;3497602;41;20129;-87
2020/12/05 08:36:21;;;;;;;0.00;0.00;;;4.10;83.30;;;;;;3490250;41;20109;-92
2020/12/05 08:38:51;;;;;;;0.70;0.50;;;4.10;83.30;;;;;;3472127;41;20121;-91
2020/12/05 08:42:31;;;;;;;;;;;;;;;;;;;;;
2020/12/05 08:44:58;;;;;;;0.00;0.00;;;4.20;83.20;;;;;;3477808;41;20110;-91
2020/12/05 08:47:24;;;;;;;0.00;0.00;;;4.30;83.20;;;;;;3495473;33;20141;-92
2020/12/05 08:49:51;;;;;;;0.00;0.00;;;4.30;83.80;;;;;;3502998;33;20098;-90
2020/12/05 08:52:18;;;;;;;0.00;0.00;;;4.40;83.10;;;;;;3504673;33;20113;-90
2020/12/05 09:24:21;;;;;;;0.00;0.00;;;4.70;83.30;;;;;;3893675;28;20163;31
2020/12/05 09:35:17;;;;;;;0.00;0.00;;;4.70;83.60;;;;;;3575009;28;20110;-91
2020/12/05 09:37:44;;;;;;;0.00;0.00;;;4.70;83.60;;;;;;3484228;41;20471;-89
2020/12/05 09:40:14;;;;;;;0.00;0.00;;;4.70;83.60;;;;;;3474362;41;20102;-90
2020/12/05 09:45:49;;;;;;;;;;;;;;;;;;;;;
2020/12/05 09:48:16;;;;;;;0.00;0.00;;;4.80;83.70;;;;;;3686875;35;20549;-89
2020/12/05 09:51:31;;;;;;;;;;;;;;;;;;;;;
2020/12/05 10:17:38;;;;;;;0.00;0.00;;;5.10;83.50;;;;;;3577831;28;20122;-90
2020/12/05 10:20:05;;;;;;;0.00;0.00;;;5.20;83.60;;;;;;3504988;40;20141;-89
2020/12/05 10:22:31;;;;;;;0.03;0.00;;;5.20;83.50;;;;;;3533893;33;20124;-89
2020/12/05 10:24:58;;;;;;;0.00;0.00;;;5.30;83.50;;;;;;3498578;40;20160;-88
2020/12/05 10:27:24;;;;;;;0.00;0.00;;;5.30;83.40;;;;;;3514858;33;20137;-88
2020/12/05 10:29:51;;;;;;;0.00;0.00;;;5.40;83.40;;;;;;3581707;35;20469;-88
2020/12/05 10:33:06;;;;;;;0.10;0.00;;;5.40;83.20;;;;;;3507579;33;20113;-89
2020/12/05 11:16:58;;;;;;;0.00;0.00;;;6.30;82.30;;;;;;3973387;35;20183;31
2020/12/05 11:19:58;;;;;;;0.13;0.00;;;6.40;82.30;;;;;;3710139;33;20130;31
2020/12/05 11:22:39;;;;;;;0.00;0.00;;;6.50;82.20;;;;;;3655371;33;20146;-91
2020/12/05 11:25:06;;;;;;;0.00;0.00;;;6.60;82.20;;;;;;3500402;41;20121;-91
2020/12/05 11:27:36;;;;;;;0.17;0.10;;;6.60;82.00;;;;;;3516510;33;20431;-91
2020/12/05 11:30:23;;;;;;;0.00;0.00;;;6.70;82.00;;;;;;3517077;33;20526;-91
2020/12/05 22:20:55;;;;;;;11.33;0.97;;;6.90;85.00;;;;;;3506167;31;20539;-88
2020/12/05 22:23:22;;;;;;;0.63;0.27;;;7.00;85.00;;;;;;3527936;28;20526;-88
2020/12/05 22:25:48;;;;;;;0.47;0.03;;;6.90;84.90;;;;;;3520456;33;20098;-88
2020/12/05 22:28:15;;;;;;;0.00;0.00;;;7.00;84.90;;;;;;3509989;41;20599;-87
2020/12/05 22:30:43;;;;;;;0.23;0.00;;;7.00;85.00;;;;;;3500496;34;20117;-88
2020/12/05 22:33:09;;;;;;;0.73;0.37;;;7.00;85.10;;;;;;3503112;33;20153;-88
2020/12/05 22:35:46;;;;;;;;;;;;;;;;;;;;;
2020/12/05 22:39:13;;;;;;;0.00;0.00;;;7.00;85.40;;;;;;3516529;33;21290;-90
2020/12/05 22:44:38;;;;;;;0.00;0.00;;;6.90;85.50;;;;;;3520221;33;20085;-88
2020/12/05 22:47:10;;;;;;;0.00;0.00;;;6.90;85.50;;;;;;3492852;33;20489;-89
2020/12/05 22:56:33;;;;;;;0.57;0.20;;;6.80;85.70;;;;;;3568642;35;20462;-90
2020/12/05 23:07:14;;;;;;;0.20;0.10;;;6.80;85.80;;;;;;3548164;28;20474;-88
2020/12/05 23:10:24;;;;;;;0.40;0.32;;;6.90;85.90;;;;;;3501233;41;20121;-89
2020/12/05 23:20:01;;;;;;;2.47;0.03;;;6.70;86.20;;;;;;3595120;33;20105;-90
2020/12/05 23:23:27;;;;;;;0.20;0.17;;;6.60;86.40;;;;;;3519844;40;20113;-89
2020/12/05 23:26:04;;;;;;;0.00;0.00;;;6.70;86.50;;;;;;3520383;33;20089;-90
2020/12/05 23:29:09;;;;;;;0.50;0.10;;;6.60;86.40;;;;;;3539371;33;20125;-90
2020/12/05 23:35:52;;;;;;;0.00;0.00;;;6.70;86.40;;;;;;3478789;41;20075;-89
2020/12/05 23:39:31;;;;;;;0.30;0.20;;;6.70;86.30;;;;;;3528875;33;20186;-90
2020/12/05 23:42:11;;;;;;;0.15;0.10;;;6.70;86.20;;;;;;3490133;40;20081;-90
2020/12/05 23:45:03;;;;;;;3.40;0.73;;;6.70;86.20;;;;;;3516857;40;20078;-89
2020/12/05 23:47:37;;;;;;;0.80;0.33;;;6.70;86.20;;;;;;3495575;33;20110;-89
2020/12/05 23:50:26;;;;;;;0.73;0.50;;;6.60;86.10;;;;;;3499888;41;20110;-89
2020/12/05 23:52:59;;;;;;;1.37;0.47;;;6.70;86.10;;;;;;3483992;41;20095;-88
2020/12/05 23:55:32;;;;;;;11.83;0.67;;;6.70;86.00;;;;;;3484816;41;20083;-89
2020/12/05 23:58:32;;;;;;;0.17;0.10;;;6.70;86.10;;;;;;3558443;33;20266;-89
